M I D A S
Marine Information and Data Acquisition System
Tripno 368 of the Zeeleeuw from 2002-12-12 07:33:05 to 2002-12-12 14:35:26
Back to CruiseResearch ActivitiesStationsMapUnderway DataData graphs

EquipmentUnitsComment
TimeDGPSUTC
LatitudeDGPSDM.mWGS84
LongitudeDGPSDM.mWGS84
HeadingGyrodeg 
SOGDGPSknotsSpeed over ground
COGDGPSdegCourse over ground
DepthEcho soundermeters200 kHz
Missing or incorrect values are displayed as -999
Navigation data collected by the RV Zeeleeuw from 2002-12-12 07:33:05 to 2002-12-12 14:35:26
                                                                                    Next 1000 lines
Time Latitude Longitude Heading SOG COG Depth
2002-12-12 07:33:13 51°13.529 2°56.222 106 3 106.7 11.7
2002-12-12 07:33:17 51°13.529 2°56.227 100.2 3 100.7 11.5
2002-12-12 07:33:22 51°13.529 2°56.233 95 3 94.4 11.7
2002-12-12 07:33:29 51°13.529 2°56.242 89.5 2.9 89.3 11.5
2002-12-12 07:33:33 51°13.529 2°56.247 84.8 2.8 84.3 10.6
2002-12-12 07:33:38 51°13.53 2°56.253 81.5 2.6 79.1 -999
2002-12-12 07:33:43 51°13.531 2°56.258 79.3 2.5 76.2 -999
2002-12-12 07:33:48 51°13.532 2°56.263 77.5 2.4 73.6 -999
2002-12-12 07:33:53 51°13.533 2°56.268 75.7 2.2 69.9 -999
2002-12-12 07:33:57 51°13.534 2°56.271 73.3 2.1 67.4 9.2
2002-12-12 07:34:03 51°13.535 2°56.275 70.7 1.9 64.7 -999
2002-12-12 07:34:08 51°13.536 2°56.278 67.5 1.7 62.6 9.3
2002-12-12 07:34:12 51°13.537 2°56.281 64.2 1.5 59.5 9.3
2002-12-12 07:34:18 51°13.538 2°56.284 61.2 1.4 57.1 9.3
2002-12-12 07:34:23 51°13.539 2°56.286 58.3 1.4 54.8 9.2
2002-12-12 07:34:28 51°13.541 2°56.288 55.7 1.3 51.1 9.5
2002-12-12 07:34:33 51°13.542 2°56.289 53.5 1.2 47.1 9.3
2002-12-12 07:34:38 51°13.543 2°56.291 51.3 1 43.5 -999
2002-12-12 07:34:43 51°13.544 2°56.292 49.3 0.8 39.9 -999
2002-12-12 07:34:48 51°13.544 2°56.292 47.3 0.6 37.3 -999
2002-12-12 07:34:53 51°13.544 2°56.292 45.2 0.3 34.1 -999
2002-12-12 07:34:58 51°13.544 2°56.292 43.8 0.2 3.5 9.4
2002-12-12 07:35:03 51°13.544 2°56.291 42.7 0.2 273.7 9.4
2002-12-12 07:35:08 51°13.544 2°56.29 41.3 0.3 246.8 9.4
2002-12-12 07:35:13 51°13.543 2°56.289 40.2 0.5 235.2 9.5
2002-12-12 07:35:17 51°13.543 2°56.288 38.7 0.7 230 9.4
2002-12-12 07:35:23 51°13.542 2°56.286 37.3 0.9 222.1 7.7
2002-12-12 07:35:28 51°13.54 2°56.285 35.8 1.1 220.7 -999
2002-12-12 07:35:34 51°13.539 2°56.283 34.5 1.2 220.8 -999
2002-12-12 07:35:39 51°13.537 2°56.281 33.5 1.3 217.3 -999
2002-12-12 07:35:44 51°13.535 2°56.279 32.7 1.5 213.9 -999
2002-12-12 07:35:49 51°13.533 2°56.277 32 1.6 212.3 -999
2002-12-12 07:35:52 51°13.532 2°56.276 31.7 1.6 211.8 -999
2002-12-12 07:35:59 51°13.53 2°56.273 31.7 1.6 212.4 -999
2002-12-12 07:36:04 51°13.528 2°56.271 31.8 1.5 213.1 -999
2002-12-12 07:36:09 51°13.527 2°56.269 31.7 1.4 214.7 -999
2002-12-12 07:36:14 51°13.525 2°56.268 31.2 1.2 215.9 -999
2002-12-12 07:36:18 51°13.524 2°56.267 30.3 1.1 218.2 -999
2002-12-12 07:36:24 51°13.524 2°56.265 29.2 0.9 220.4 -999
2002-12-12 07:36:29 51°13.523 2°56.264 27.5 0.7 223.9 -999
2002-12-12 07:36:33 51°13.523 2°56.264 25.8 0.5 232.4 9.3
2002-12-12 07:36:38 51°13.523 2°56.263 24 0.4 242.8 9.4
2002-12-12 07:36:43 51°13.523 2°56.262 22 0.3 288.8 9.2
2002-12-12 07:36:48 51°13.523 2°56.262 19 0.4 328.9 9
2002-12-12 07:36:53 51°13.524 2°56.261 14.8 0.6 347.9 8.9
2002-12-12 07:36:58 51°13.526 2°56.261 9.5 0.8 355.8 8.6
2002-12-12 07:37:02 51°13.526 2°56.261 6.8 0.8 357.2 8.8
2002-12-12 07:37:08 51°13.527 2°56.261 5.3 0.8 358.6 8.5
2002-12-12 07:37:13 51°13.528 2°56.261 3.7 0.6 356.5 8.9
2002-12-12 07:37:17 51°13.528 2°56.261 2.2 0.3 354.7 8.9
2002-12-12 07:37:21 51°13.528 2°56.261 1.2 0.1 337.4 8.9
2002-12-12 07:37:28 51°13.528 2°56.26 0.3 0.2 191.5 8.9
2002-12-12 07:37:32 51°13.527 2°56.26 359.8 0.5 183.2 8.8
2002-12-12 07:37:38 51°13.526 2°56.26 359.3 0.6 181 8.8
2002-12-12 07:37:43 51°13.524 2°56.26 358.8 0.9 180.3 8.9
2002-12-12 07:37:48 51°13.523 2°56.26 358.5 1.1 179.1 -999
2002-12-12 07:37:54 51°13.521 2°56.26 358.2 1.3 177.2 -999
2002-12-12 07:37:59 51°13.519 2°56.26 358 1.3 177 -999
2002-12-12 07:38:05 51°13.517 2°56.261 358 1.2 177.4 -999
2002-12-12 07:38:08 51°13.516 2°56.261 358 1.2 177.5 -999
2002-12-12 07:38:14 51°13.514 2°56.261 357.8 1.1 175.6 -999
2002-12-12 07:38:18 51°13.513 2°56.261 357.8 0.9 176.8 -999
2002-12-12 07:38:24 51°13.512 2°56.26 357.7 0.8 181.7 -999
2002-12-12 07:38:29 51°13.512 2°56.26 357.2 0.6 184.7 -999
2002-12-12 07:38:33 51°13.511 2°56.26 356.7 0.5 186.6 12
2002-12-12 07:38:37 51°13.511 2°56.26 356.2 0.4 186.4 11.9
2002-12-12 07:38:43 51°13.51 2°56.26 355.5 0.3 186.8 12
2002-12-12 07:38:48 51°13.51 2°56.26 354.8 0.2 189.1 12
2002-12-12 07:38:53 51°13.51 2°56.26 354.2 0.1 197.6 12
2002-12-12 07:38:58 51°13.51 2°56.26 353.2 0.1 279.2 12
2002-12-12 07:39:01 51°13.511 2°56.259 351.3 0.3 336.7 12
2002-12-12 07:39:09 51°13.512 2°56.258 348.2 0.6 336.1 11.9
2002-12-12 07:39:13 51°13.513 2°56.258 344.7 0.9 338.4 11.9
2002-12-12 07:39:17 51°13.514 2°56.257 340.7 1.1 336 11.9
2002-12-12 07:39:24 51°13.516 2°56.255 336.8 1.2 335.6 11.9
2002-12-12 07:39:29 51°13.518 2°56.253 332.8 1.2 330.9 11.8
2002-12-12 07:39:34 51°13.519 2°56.252 329.5 1.3 327.4 11.6
2002-12-12 07:39:38 51°13.52 2°56.25 326 1.3 323.8 11.6
2002-12-12 07:39:43 51°13.522 2°56.248 323.2 1.4 319.2 11.5
2002-12-12 07:39:49 51°13.524 2°56.246 320 1.4 317.7 11.5
2002-12-12 07:39:53 51°13.525 2°56.244 317.3 1.4 318.4 11.5
2002-12-12 07:39:58 51°13.527 2°56.242 314.2 1.5 317.2 11.6
2002-12-12 07:40:03 51°13.528 2°56.24 311.8 1.5 315.2 11.5
2002-12-12 07:40:09 51°13.529 2°56.237 310 1.5 312.6 11.4
2002-12-12 07:40:13 51°13.53 2°56.235 308.7 1.5 310.5 11.4
2002-12-12 07:40:18 51°13.532 2°56.232 307.5 1.5 308.9 11.3
2002-12-12 07:40:23 51°13.533 2°56.229 306.5 1.5 307.1 11.3
2002-12-12 07:40:29 51°13.535 2°56.226 305.3 1.6 306 10.9
2002-12-12 07:40:33 51°13.536 2°56.224 304.3 1.6 304 11.2
2002-12-12 07:40:37 51°13.537 2°56.221 303.5 1.6 302.3 11.2
2002-12-12 07:40:43 51°13.538 2°56.217 303 1.7 300.5 11.1
2002-12-12 07:40:49 51°13.539 2°56.213 302.3 1.7 299 11.1
2002-12-12 07:40:54 51°13.541 2°56.21 301.8 1.8 298.5 11.1
2002-12-12 07:40:58 51°13.542 2°56.207 301.5 1.8 298.7 11.3
2002-12-12 07:41:03 51°13.543 2°56.204 301.2 1.8 298.5 11.4
2002-12-12 07:41:09 51°13.544 2°56.199 300.8 1.8 298.4 11.3
2002-12-12 07:41:14 51°13.545 2°56.196 300.5 1.8 297.9 11.3
2002-12-12 07:41:18 51°13.546 2°56.193 300.3 1.9 297 11.4
2002-12-12 07:41:24 51°13.548 2°56.188 300.3 1.9 295.9 11.1
2002-12-12 07:41:29 51°13.549 2°56.184 300.5 1.9 295.4 10.5
2002-12-12 07:41:33 51°13.55 2°56.181 300.7 2 295.6 11.2
2002-12-12 07:41:37 51°13.551 2°56.178 300.8 2 295.5 11.3
2002-12-12 07:41:44 51°13.553 2°56.172 301.2 2 296.1 10.8
2002-12-12 07:41:49 51°13.554 2°56.168 301.2 2 296.8 11.5
2002-12-12 07:41:54 51°13.555 2°56.164 301.3 2 297.4 11.5
2002-12-12 07:41:58 51°13.556 2°56.161 301.5 2 297.8 11.5
2002-12-12 07:42:04 51°13.558 2°56.156 301.7 2.1 297.9 11.4
2002-12-12 07:42:08 51°13.559 2°56.152 301.7 2.1 297.3 11.3
2002-12-12 07:42:14 51°13.561 2°56.147 301.8 2.2 297.1 11.3
2002-12-12 07:42:18 51°13.562 2°56.143 301.8 2.3 298.1 11.2
2002-12-12 07:42:22 51°13.563 2°56.139 301.8 2.4 298.4 11.1
2002-12-12 07:42:29 51°13.566 2°56.132 302 2.6 298.9 11.5
2002-12-12 07:42:33 51°13.567 2°56.128 302.2 2.7 299.5 11.5
2002-12-12 07:42:39 51°13.569 2°56.121 302.3 2.8 298.9 11.5
2002-12-12 07:42:43 51°13.571 2°56.116 302.5 3 298 11.5
2002-12-12 07:42:49 51°13.573 2°56.109 302.7 3.1 297.5 11.5
2002-12-12 07:42:54 51°13.575 2°56.102 302.5 3.1 297 11.4
2002-12-12 07:42:57 51°13.577 2°56.098 302.5 3.2 297.1 11.1
2002-12-12 07:43:04 51°13.58 2°56.089 302.8 3.4 297.2 11.2
2002-12-12 07:43:09 51°13.582 2°56.082 303.5 3.5 297.6 10.8
2002-12-12 07:43:13 51°13.584 2°56.076 304.5 3.6 298.2 11.4
2002-12-12 07:43:18 51°13.587 2°56.069 305.2 3.7 299.8 11.1
2002-12-12 07:43:24 51°13.59 2°56.061 305.5 3.8 300.7 11.2
2002-12-12 07:43:29 51°13.593 2°56.053 305.7 3.9 301 11.2
2002-12-12 07:43:34 51°13.596 2°56.045 306 4 300.5 11.1
2002-12-12 07:43:39 51°13.599 2°56.037 306.7 4.1 300.9 11.3
2002-12-12 07:43:44 51°13.602 2°56.029 306.8 4.2 301.3 11.1
2002-12-12 07:43:49 51°13.605 2°56.021 307 4.3 301.5 11
2002-12-12 07:43:54 51°13.608 2°56.013 307 4.3 301.6 11
2002-12-12 07:43:58 51°13.611 2°56.006 307.2 4.4 301.5 11.1
2002-12-12 07:44:03 51°13.614 2°55.997 307.3 4.5 301.9 11.4
2002-12-12 07:44:09 51°13.619 2°55.987 307.3 4.7 302.6 12.5
2002-12-12 07:44:13 51°13.621 2°55.98 307.2 4.8 302.6 12.6
2002-12-12 07:44:18 51°13.625 2°55.971 306.8 4.9 302.3 12.5
2002-12-12 07:44:21 51°13.627 2°55.965 306.7 4.9 302.4 11.4
2002-12-12 07:44:29 51°13.633 2°55.95 306.7 5 302.2 12.4
2002-12-12 07:44:34 51°13.637 2°55.94 306.7 5.2 302.1 12.3
2002-12-12 07:44:38 51°13.64 2°55.932 306.2 5.2 302 12.3
2002-12-12 07:44:42 51°13.643 2°55.925 305.7 5.3 301.9 12.2
2002-12-12 07:44:49 51°13.649 2°55.911 305.5 5.3 301.7 12.1
2002-12-12 07:44:53 51°13.652 2°55.902 305.7 5.4 302.1 12.1
2002-12-12 07:44:59 51°13.657 2°55.89 306 5.4 302.2 11.7
2002-12-12 07:45:02 51°13.659 2°55.884 306.3 5.5 302.4 11
2002-12-12 07:45:09 51°13.665 2°55.869 306.8 5.5 302.7 10.8
2002-12-12 07:45:14 51°13.669 2°55.859 307.3 5.5 303.3 10.9
2002-12-12 07:45:18 51°13.673 2°55.851 308 5.6 304 10.8
2002-12-12 07:45:24 51°13.678 2°55.838 308.8 5.6 304.6 10.8
2002-12-12 07:45:29 51°13.683 2°55.828 309.3 5.7 305.1 10.8
2002-12-12 07:45:34 51°13.687 2°55.819 309.8 5.7 305.8 10.8
2002-12-12 07:45:38 51°13.691 2°55.811 310.3 5.7 306.4 11.7
2002-12-12 07:45:44 51°13.697 2°55.799 311 5.7 306.8 12.4
2002-12-12 07:45:49 51°13.702 2°55.789 311.8 5.7 307.5 13.2
2002-12-12 07:45:54 51°13.707 2°55.779 312.7 5.8 308.6 13.9
2002-12-12 07:45:59 51°13.712 2°55.769 313.3 5.8 309.5 14.2
2002-12-12 07:46:03 51°13.717 2°55.76 314.2 5.9 309.9 13.8
2002-12-12 07:46:09 51°13.723 2°55.748 315 6 310.1 13
2002-12-12 07:46:14 51°13.729 2°55.738 316.2 6.1 310.5 12.2
2002-12-12 07:46:17 51°13.732 2°55.732 317.8 6.1 311.8 11.9
2002-12-12 07:46:24 51°13.74 2°55.719 319.8 6.1 313.8 12
2002-12-12 07:46:29 51°13.747 2°55.709 322.3 6.1 315.9 11.4
2002-12-12 07:46:33 51°13.752 2°55.703 325.2 6.2 318.8 11.3
2002-12-12 07:46:37 51°13.757 2°55.696 327.7 6.3 321.8 11.2
2002-12-12 07:46:44 51°13.767 2°55.684 328.2 6.3 323 11.3
2002-12-12 07:46:49 51°13.774 2°55.675 328.5 6.4 323.1 11.7
2002-12-12 07:46:53 51°13.78 2°55.669 330.3 6.5 324.1 11.7
2002-12-12 07:46:59 51°13.789 2°55.66 333.3 6.5 326.2 11.7
2002-12-12 07:47:03 51°13.796 2°55.654 336.2 6.6 329.9 12
2002-12-12 07:47:09 51°13.806 2°55.646 338.3 6.6 331.4 11.9
2002-12-12 07:47:14 51°13.814 2°55.639 339 6.7 332.9 11.9
2002-12-12 07:47:18 51°13.821 2°55.634 339.2 6.7 333.2 11.9
2002-12-12 07:47:23 51°13.83 2°55.628 339.8 6.8 334.3 11.8
2002-12-12 07:47:29 51°13.84 2°55.62 340.7 6.8 335.3 11.8
2002-12-12 07:47:34 51°13.849 2°55.615 341.8 6.9 336.7 11.8
2002-12-12 07:47:39 51°13.858 2°55.609 342.2 6.9 337.5 11.8
2002-12-12 07:47:43 51°13.865 2°55.604 341.2 6.9 337.6 11.8
2002-12-12 07:47:49 51°13.876 2°55.596 340.8 7 337 11.8
2002-12-12 07:47:54 51°13.885 2°55.59 341.3 7.1 337 11.8
2002-12-12 07:47:58 51°13.892 2°55.586 341.3 7.1 337.3 11.8
2002-12-12 07:48:03 51°13.901 2°55.579 340.3 7.1 336.6 11.7
2002-12-12 07:48:09 51°13.912 2°55.571 339.5 7 335.8 11.7
2002-12-12 07:48:13 51°13.919 2°55.566 339.5 7.1 334.9 11.7
2002-12-12 07:48:19 51°13.93 2°55.558 340 7.1 334.7 11.9
2002-12-12 07:48:23 51°13.937 2°55.553 340.2 7.1 335 11.9
2002-12-12 07:48:29 51°13.947 2°55.545 340 7.1 335.2 11.9
2002-12-12 07:48:33 51°13.955 2°55.54 340.3 7.1 335.4 11.9
2002-12-12 07:48:39 51°13.965 2°55.533 340.8 7.1 336 11.9
2002-12-12 07:48:43 51°13.972 2°55.528 341.2 7.1 336.7 11.9
2002-12-12 07:48:49 51°13.983 2°55.52 340.7 7.1 336.6 11.5
2002-12-12 07:48:53 51°13.99 2°55.515 340.2 7.1 336.2 11.9
2002-12-12 07:48:59 51°14.001 2°55.507 340.2 7.1 336.1 11.9
2002-12-12 07:49:03 51°14.008 2°55.502 340.3 7.1 336.2 11.9
2002-12-12 07:49:09 51°14.019 2°55.495 340.2 7.1 335.8 11.9
2002-12-12 07:49:14 51°14.028 2°55.488 339.8 7.1 335.4 11.9
2002-12-12 07:49:18 51°14.035 2°55.483 339.8 7.1 335.4 11.5
2002-12-12 07:49:24 51°14.046 2°55.475 339.8 7.1 335.2 11.6
2002-12-12 07:49:28 51°14.053 2°55.47 339.7 7.1 335.2 11.8
2002-12-12 07:49:34 51°14.064 2°55.462 338.8 7.1 334.6 11.4
2002-12-12 07:49:38 51°14.071 2°55.456 338.2 7.1 333.8 10.9
2002-12-12 07:49:42 51°14.078 2°55.45 338.5 7.1 333.1 11.3
2002-12-12 07:49:49 51°14.09 2°55.44 338.5 7.1 333.5 11.4
2002-12-12 07:49:54 51°14.098 2°55.433 337.8 7.1 332.9 11.4
2002-12-12 07:49:58 51°14.105 2°55.428 337.3 7.1 333 10.9
2002-12-12 07:50:04 51°14.116 2°55.418 337.2 7.1 332.1 11.1
2002-12-12 07:50:09 51°14.125 2°55.411 337.5 7.2 332.5 11.4
2002-12-12 07:50:13 51°14.132 2°55.405 337.3 7.2 332.4 11.2
2002-12-12 07:50:18 51°14.141 2°55.398 336.8 7.2 332.6 11.4
2002-12-12 07:50:24 51°14.151 2°55.389 336.2 7.2 331.7 11.4
2002-12-12 07:50:29 51°14.16 2°55.381 335.3 7.2 331 11.4
2002-12-12 07:50:34 51°14.169 2°55.373 334.3 7.3 330.4 11.4
2002-12-12 07:50:39 51°14.177 2°55.364 332.8 7.3 329.1 11.4
2002-12-12 07:50:43 51°14.184 2°55.357 331 7.3 327.5 11.4
2002-12-12 07:50:49 51°14.194 2°55.346 329.2 7.3 325.3 11.4
2002-12-12 07:50:54 51°14.202 2°55.336 327.7 7.3 323.6 11.4
2002-12-12 07:50:59 51°14.21 2°55.326 325.8 7.2 322 11.4
2002-12-12 07:51:04 51°14.217 2°55.315 324.2 7.2 320.7 11.4
2002-12-12 07:51:09 51°14.224 2°55.304 322.8 7.2 318.5 11.4
2002-12-12 07:51:14 51°14.232 2°55.294 321.8 7.3 317.3 11.4
2002-12-12 07:51:18 51°14.238 2°55.285 320.7 7.3 316.4 11.4
2002-12-12 07:51:24 51°14.247 2°55.271 319.7 7.3 315.4 11.4
2002-12-12 07:51:29 51°14.253 2°55.259 318.3 7.2 314.1 11.4
2002-12-12 07:51:34 51°14.26 2°55.247 317 7.3 312.6 11.4
2002-12-12 07:51:39 51°14.267 2°55.234 316.2 7.4 311.6 11.4
2002-12-12 07:51:44 51°14.274 2°55.221 316 7.8 310.8 11.4
2002-12-12 07:51:49 51°14.282 2°55.207 316.3 8 310.8 11.4
2002-12-12 07:51:54 51°14.289 2°55.193 316.7 8.3 310.7 11.3
2002-12-12 07:51:58 51°14.296 2°55.181 316.7 8.6 311.1 11.4
2002-12-12 07:52:03 51°14.304 2°55.166 315.3 8.8 310.5 11.3
2002-12-12 07:52:09 51°14.313 2°55.147 313.8 9 309.3 11.3
2002-12-12 07:52:14 51°14.321 2°55.131 312.7 9.2 308 11.3
2002-12-12 07:52:18 51°14.327 2°55.117 312 9.3 307.1 11.3
2002-12-12 07:52:23 51°14.335 2°55.1 311.3 9.5 306.3 11.1
2002-12-12 07:52:29 51°14.344 2°55.079 311.2 9.7 305.7 11.3
2002-12-12 07:52:34 51°14.352 2°55.061 311 9.8 305.5 11.3
2002-12-12 07:52:38 51°14.358 2°55.047 310.5 9.8 305.3 11.3
2002-12-12 07:52:43 51°14.366 2°55.029 309.3 9.9 304.4 11.2
2002-12-12 07:52:49 51°14.375 2°55.007 307.8 9.9 303.3 11.2
2002-12-12 07:52:54 51°14.383 2°54.988 307.7 10 303 11.2
2002-12-12 07:52:59 51°14.39 2°54.969 307.8 10.1 303.1 11.3
2002-12-12 07:53:03 51°14.397 2°54.954 308.2 10.1 303.5 11.3
2002-12-12 07:53:09 51°14.406 2°54.931 308.5 10.4 303.4 11.3
2002-12-12 07:53:13 51°14.413 2°54.915 307.7 10.6 303.6 11.3
2002-12-12 07:53:18 51°14.421 2°54.894 306.3 10.9 302.6 11.3
2002-12-12 07:53:22 51°14.428 2°54.877 305.7 11.3 302.2 11.3
2002-12-12 07:53:29 51°14.44 2°54.846 305.8 11.6 301.9 11.3
2002-12-12 07:53:34 51°14.45 2°54.824 306.5 11.8 302.1 11.3
2002-12-12 07:53:38 51°14.457 2°54.805 305.5 12.3 302.5 11.2
2002-12-12 07:53:44 51°14.468 2°54.777 305 12.5 302.2 11.2
2002-12-12 07:53:49 51°14.477 2°54.753 305.3 12.8 302.6 11.2
2002-12-12 07:53:54 51°14.488 2°54.73 306.8 12.9 304.5 11.2
2002-12-12 07:53:58 51°14.496 2°54.711 306.2 13 305.2 11.1
2002-12-12 07:54:03 51°14.506 2°54.688 304.3 12.9 304.9 11.2
2002-12-12 07:54:09 51°14.517 2°54.658 302 13 302.7 11.1
2002-12-12 07:54:13 51°14.525 2°54.638 300.5 13.1 300.6 11.2
2002-12-12 07:54:19 51°14.535 2°54.608 300.7 13.1 299.8 11.1
2002-12-12 07:54:24 51°14.545 2°54.583 301.5 13.1 300.9 11.1
2002-12-12 07:54:29 51°14.554 2°54.558 302.2 13.1 301 11.2
2002-12-12 07:54:34 51°14.564 2°54.533 302 13.2 301.2 11.1
2002-12-12 07:54:39 51°14.573 2°54.508 301.5 13.2 300.7 11.2
2002-12-12 07:54:44 51°14.582 2°54.482 300.3 13.3 300 11.2
2002-12-12 07:54:48 51°14.589 2°54.461 299 13.3 298.9 11.2
2002-12-12 07:54:54 51°14.599 2°54.431 299 13.2 298.1 11.2
2002-12-12 07:54:58 51°14.606 2°54.41 298.7 13.2 297.8 11.2
2002-12-12 07:55:04 51°14.617 2°54.378 298.7 13.3 297.4 11.1
2002-12-12 07:55:09 51°14.625 2°54.352 299 13.3 297.6 11.2
2002-12-12 07:55:14 51°14.634 2°54.326 298.7 13.3 297.4 11.2
2002-12-12 07:55:19 51°14.642 2°54.3 298.8 13.3 297.5 11.1
2002-12-12 07:55:24 51°14.651 2°54.274 299.2 13.3 297.5 11.2
2002-12-12 07:55:28 51°14.657 2°54.253 298.5 13.3 297.3 11.2
2002-12-12 07:55:34 51°14.668 2°54.221 298.7 13.3 297.3 11.2
2002-12-12 07:55:37 51°14.673 2°54.206 299.2 13.3 297.3 11.2
2002-12-12 07:55:43 51°14.683 2°54.174 299.3 13.3 298.1 11.2
2002-12-12 07:55:49 51°14.694 2°54.143 299.3 13.3 298 11.2
2002-12-12 07:55:53 51°14.701 2°54.122 299.3 13.3 298.5 11.2
2002-12-12 07:55:58 51°14.71 2°54.096 299.3 13.3 298.4 11.2
2002-12-12 07:56:03 51°14.719 2°54.07 299.2 13.4 298.7 11.2
2002-12-12 07:56:07 51°14.726 2°54.05 299.3 13.3 298.7 11.2
2002-12-12 07:56:13 51°14.736 2°54.019 299.7 13.3 299.2 11.1
2002-12-12 07:56:18 51°14.745 2°53.993 299.8 13.3 298.8 11.1
2002-12-12 07:56:23 51°14.754 2°53.967 299.5 13.4 299 11.1
2002-12-12 07:56:29 51°14.765 2°53.935 298.8 13.4 297.9 11.1
2002-12-12 07:56:33 51°14.772 2°53.915 299.3 13.4 298.7 11
2002-12-12 07:56:37 51°14.778 2°53.894 299 13.3 298 11.1
2002-12-12 07:56:43 51°14.789 2°53.863 298.8 13.3 297.9 11.1
2002-12-12 07:56:49 51°14.799 2°53.83 298.7 13.4 296.4 11.1
2002-12-12 07:56:53 51°14.805 2°53.809 299 13.5 296.6 11
2002-12-12 07:56:57 51°14.812 2°53.787 299.2 13.6 296.1 11
2002-12-12 07:57:03 51°14.822 2°53.756 299 13.6 296.5 11
2002-12-12 07:57:09 51°14.832 2°53.723 298.8 13.5 296.3 11
2002-12-12 07:57:13 51°14.839 2°53.702 299.2 13.5 296.8 10.7
2002-12-12 07:57:17 51°14.845 2°53.68 299.2 13.5 296.5 11
2002-12-12 07:57:23 51°14.856 2°53.648 300 13.6 296.7 11
2002-12-12 07:57:29 51°14.866 2°53.616 299.7 13.6 296.8 11.1
2002-12-12 07:57:34 51°14.874 2°53.589 299.5 13.7 296.8 11.2
2002-12-12 07:57:37 51°14.88 2°53.572 299.5 13.7 296.6 11.1
2002-12-12 07:57:43 51°14.889 2°53.54 299.2 13.7 296.3 11.2
2002-12-12 07:57:49 51°14.9 2°53.508 299.5 13.7 296.9 11.2
2002-12-12 07:57:53 51°14.906 2°53.486 299.8 13.6 296.4 11.2
2002-12-12 07:57:57 51°14.913 2°53.465 299.2 13.7 296.4 11.2
2002-12-12 07:58:03 51°14.924 2°53.432 300 13.7 296.9 11.2
2002-12-12 07:58:09 51°14.934 2°53.399 299.8 13.8 296.8 11.3
2002-12-12 07:58:13 51°14.941 2°53.378 300 13.8 297.1 11.3
2002-12-12 07:58:17 51°14.948 2°53.356 299.3 13.7 296.7 11.4
2002-12-12 07:58:23 51°14.958 2°53.323 299.2 13.8 296.8 11.4
2002-12-12 07:58:27 51°14.965 2°53.301 299.3 13.8 296.5 11.5
2002-12-12 07:58:33 51°14.975 2°53.268 299 13.8 296.6 11.5
2002-12-12 07:58:38 51°14.983 2°53.241 299.7 13.8 296.4 11.5
2002-12-12 07:58:43 51°14.992 2°53.214 299.2 13.8 296.6 11.5
2002-12-12 07:58:49 51°15.002 2°53.181 299.3 13.8 296.2 11.3
2002-12-12 07:58:53 51°15.009 2°53.159 299.7 13.8 296.6 11.4
2002-12-12 07:58:59 51°15.019 2°53.127 299.3 13.8 296.7 11.5
2002-12-12 07:59:02 51°15.025 2°53.11 299 13.8 296.3 11.5
2002-12-12 07:59:09 51°15.037 2°53.072 299.7 13.8 296.9 11.6
2002-12-12 07:59:13 51°15.044 2°53.051 299.7 13.8 297 11.6
2002-12-12 07:59:18 51°15.052 2°53.024 298.8 13.7 297.1 11.6
2002-12-12 07:59:23 51°15.061 2°52.997 299.3 13.7 296.9 11.6
2002-12-12 07:59:29 51°15.072 2°52.964 299.5 13.8 297.3 11.5
2002-12-12 07:59:34 51°15.08 2°52.937 299.8 13.7 296.8 11.5
2002-12-12 07:59:38 51°15.087 2°52.916 299.8 13.7 297.5 11.6
2002-12-12 07:59:43 51°15.096 2°52.889 299.7 13.7 297.3 11.7
2002-12-12 07:59:49 51°15.106 2°52.856 300 13.7 297.2 11.6
2002-12-12 07:59:54 51°15.115 2°52.83 299.8 13.7 297.6 11.8
2002-12-12 07:59:59 51°15.124 2°52.803 299.7 13.7 297.4 11.8
2002-12-12 08:00:02 51°15.129 2°52.787 299.7 13.7 297.5 12
2002-12-12 08:00:09 51°15.142 2°52.749 300 13.7 297.9 12.1
2002-12-12 08:00:13 51°15.149 2°52.728 299.8 13.7 298.2 12.1
2002-12-12 08:00:18 51°15.158 2°52.701 299.8 13.7 298.3 12.2
2002-12-12 08:00:23 51°15.167 2°52.674 300.2 13.7 298.5 12.3
2002-12-12 08:00:29 51°15.178 2°52.643 300 13.7 298.2 12.3
2002-12-12 08:00:34 51°15.187 2°52.616 299.8 13.7 298.1 12.3
2002-12-12 08:00:38 51°15.194 2°52.595 299.5 13.6 298 12.4
2002-12-12 08:00:43 51°15.203 2°52.568 299.5 13.6 298 12.3
2002-12-12 08:00:49 51°15.213 2°52.536 299.5 13.6 298.2 12.4
2002-12-12 08:00:53 51°15.22 2°52.515 299.8 13.6 297.6 12.5
2002-12-12 08:00:59 51°15.231 2°52.483 300 13.6 298.5 12.6
2002-12-12 08:01:03 51°15.238 2°52.462 299.8 13.6 298 12.7
2002-12-12 08:01:09 51°15.248 2°52.43 299.7 13.6 297.9 12.7
2002-12-12 08:01:13 51°15.255 2°52.409 298.5 13.5 297.7 12.7
2002-12-12 08:01:19 51°15.264 2°52.376 297 13.5 295.7 12.8
2002-12-12 08:01:24 51°15.272 2°52.349 295.7 13.4 294.7 12.8
2002-12-12 08:01:29 51°15.279 2°52.322 294.8 13.4 293.4 12.8
2002-12-12 08:01:33 51°15.285 2°52.3 295.2 13.4 293.2 12.8
2002-12-12 08:01:38 51°15.292 2°52.272 293.7 13.4 292.2 12.8
2002-12-12 08:01:43 51°15.299 2°52.244 292.2 13.4 290.5 12.8
2002-12-12 08:01:49 51°15.305 2°52.21 290.2 13.4 289.2 12.9
2002-12-12 08:01:53 51°15.311 2°52.188 289.8 13.4 288.6 13.1
2002-12-12 08:01:58 51°15.316 2°52.159 289.3 13.5 287.8 13
2002-12-12 08:02:03 51°15.322 2°52.131 289.2 13.5 287.8 13.2
2002-12-12 08:02:09 51°15.328 2°52.097 287.8 13.4 286.9 13.1
2002-12-12 08:02:14 51°15.334 2°52.069 288.3 13.4 287 13.2
2002-12-12 08:02:17 51°15.336 2°52.052 288 13.4 286.1 13.3
2002-12-12 08:02:22 51°15.341 2°52.023 287.8 13.4 286 13.4
2002-12-12 08:02:27 51°15.347 2°51.995 287.2 13.5 286.1 13.1
2002-12-12 08:02:34 51°15.354 2°51.955 288.3 13.4 285.9 13.1
2002-12-12 08:02:38 51°15.358 2°51.932 288.2 13.4 286.1 13.5
2002-12-12 08:02:42 51°15.362 2°51.909 287.2 13.4 286.3 13.6
2002-12-12 08:02:49 51°15.369 2°51.87 287.8 13.4 286 13.5
2002-12-12 08:02:53 51°15.372 2°51.847 286.7 13.3 285.3 13.6
2002-12-12 08:02:58 51°15.378 2°51.819 286.7 13.3 285.7 13.7
2002-12-12 08:03:02 51°15.381 2°51.796 287.7 13.3 285.6 13.3
2002-12-12 08:03:09 51°15.389 2°51.757 288.2 13.3 286.6 13.5
2002-12-12 08:03:14 51°15.394 2°51.728 287.2 13.3 286 13.5
2002-12-12 08:03:17 51°15.397 2°51.711 287.5 13.3 285.9 13.6
2002-12-12 08:03:23 51°15.403 2°51.677 286.7 13.4 285.2 13.7
2002-12-12 08:03:29 51°15.408 2°51.643 286 13.3 284.2 13.7
2002-12-12 08:03:34 51°15.412 2°51.614 285 13.3 283.8 13.6
2002-12-12 08:03:38 51°15.415 2°51.591 285.5 13.3 283.8 13.8
2002-12-12 08:03:42 51°15.419 2°51.569 285.3 13.3 283.9 13.9
2002-12-12 08:03:47 51°15.423 2°51.54 284.3 13.3 282.5 13.8
2002-12-12 08:03:53 51°15.428 2°51.506 284.5 13.3 282.8 13.6
2002-12-12 08:03:58 51°15.431 2°51.477 283.5 13.3 281.5 13.6
2002-12-12 08:04:03 51°15.434 2°51.448 282.2 13.3 280.9 13.2
2002-12-12 08:04:09 51°15.438 2°51.414 282 13.3 280.1 13.8
2002-12-12 08:04:13 51°15.44 2°51.39 281.5 13.3 279.3 13.8
2002-12-12 08:04:18 51°15.443 2°51.362 280.2 13.3 278.9 13.4
2002-12-12 08:04:22 51°15.445 2°51.338 280 13.3 277.5 14
2002-12-12 08:04:29 51°15.449 2°51.297 279.7 13.3 278.4 13.8
2002-12-12 08:04:34 51°15.451 2°51.268 278.8 13.2 276.6 13.9
2002-12-12 08:04:38 51°15.453 2°51.245 279.2 13.3 276.8 14.1
2002-12-12 08:04:42 51°15.454 2°51.221 277.8 13.3 276.2 14.2
2002-12-12 08:04:49 51°15.458 2°51.181 278.7 13.3 276.8 14
2002-12-12 08:04:53 51°15.459 2°51.157 278.5 13.3 276.4 14.1
2002-12-12 08:04:58 51°15.461 2°51.128 279 13.3 276.6 14.2
2002-12-12 08:05:02 51°15.463 2°51.105 279.5 13.3 276.9 14.2
2002-12-12 08:05:09 51°15.465 2°51.064 278.2 13.3 277 14.2
2002-12-12 08:05:13 51°15.467 2°51.04 278.8 13.3 276.4 14.2
2002-12-12 08:05:18 51°15.47 2°51.011 279.8 13.3 277.2 13.9
2002-12-12 08:05:22 51°15.471 2°50.987 278 13.3 276.4 14
2002-12-12 08:05:29 51°15.475 2°50.947 278.8 13.3 276.9 14.1
2002-12-12 08:05:33 51°15.476 2°50.923 278.8 13.3 276.8 14.3
2002-12-12 08:05:38 51°15.478 2°50.894 279.2 13.4 276.9 14.2
2002-12-12 08:05:42 51°15.48 2°50.871 279.2 13.3 277.2 14.2
2002-12-12 08:05:49 51°15.484 2°50.83 280.2 13.3 276.9 14.3
2002-12-12 08:05:53 51°15.486 2°50.806 279.8 13.3 278.3 14.1
2002-12-12 08:05:58 51°15.488 2°50.777 279.3 13.3 276.8 14.3
2002-12-12 08:06:02 51°15.491 2°50.754 279.5 13.3 278.4 14.2
2002-12-12 08:06:09 51°15.493 2°50.713 279.3 13.3 276.3 14.1
2002-12-12 08:06:13 51°15.495 2°50.689 279.2 13.3 277.8 14.3
2002-12-12 08:06:17 51°15.496 2°50.666 279 13.3 276.2 14.3
2002-12-12 08:06:23 51°15.5 2°50.631 279 13.2 277.5 14.3
2002-12-12 08:06:27 51°15.501 2°50.608 278.7 13.2 276.6 14.3
2002-12-12 08:06:33 51°15.504 2°50.573 278.8 13.3 276.9 14
2002-12-12 08:06:38 51°15.506 2°50.544 279.7 13.2 277.5 14.2
2002-12-12 08:06:43 51°15.508 2°50.515 279.7 13.2 277.6 14.3
2002-12-12 08:06:49 51°15.513 2°50.481 281.8 13.2 279.9 14.3
2002-12-12 08:06:53 51°15.515 2°50.457 282.2 13.3 279.9 14.2
2002-12-12 08:06:58 51°15.519 2°50.428 282.7 13.4 281.2 14.2
2002-12-12 08:07:03 51°15.521 2°50.399 282.3 13.3 280.1 14.1
2002-12-12 08:07:09 51°15.526 2°50.365 284.2 13.4 281.5 14.1
2002-12-12 08:07:14 51°15.529 2°50.336 282.7 13.3 281 14.2
2002-12-12 08:07:18 51°15.533 2°50.313 283.3 13.3 281.3 14.3
2002-12-12 08:07:22 51°15.535 2°50.29 283.5 13.3 280.7 14.3
2002-12-12 08:07:29 51°15.541 2°50.25 283.5 13.3 281.6 14.4
2002-12-12 08:07:33 51°15.543 2°50.227 282.5 13.3 280.3 14.3
2002-12-12 08:07:37 51°15.547 2°50.204 284 13.3 282.2 14.3
2002-12-12 08:07:43 51°15.55 2°50.169 284.2 13.3 281.2 14.2
2002-12-12 08:07:49 51°15.555 2°50.135 283.8 13.3 281.9 14.2
2002-12-12 08:07:53 51°15.559 2°50.112 283.5 13.3 282.1 14.3
2002-12-12 08:07:58 51°15.562 2°50.083 283.3 13.2 281.2 13.9
2002-12-12 08:08:02 51°15.565 2°50.06 283.7 13.3 281.8 14.2
2002-12-12 08:08:09 51°15.57 2°50.019 284.5 13.3 281.6 14
2002-12-12 08:08:13 51°15.575 2°49.997 285.7 13.3 284.2 14.2
2002-12-12 08:08:17 51°15.577 2°49.974 285.7 13.3 282.8 14.2
2002-12-12 08:08:23 51°15.584 2°49.94 286.5 13.3 285.1 14
2002-12-12 08:08:29 51°15.589 2°49.906 287.3 13.3 284.9 14.4
2002-12-12 08:08:33 51°15.594 2°49.883 288 13.4 286.4 14.3
2002-12-12 08:08:38 51°15.598 2°49.855 288 13.3 285.6 13.8
2002-12-12 08:08:44 51°15.604 2°49.821 288.3 13.3 286.4 14.3
2002-12-12 08:08:49 51°15.61 2°49.793 288.7 13.3 286.5 14.2
2002-12-12 08:08:53 51°15.614 2°49.771 288.5 13.3 287 14.1
2002-12-12 08:08:57 51°15.618 2°49.748 287.7 13.3 286 14.1
2002-12-12 08:09:04 51°15.626 2°49.709 288 13.3 287.2 14.1
2002-12-12 08:09:07 51°15.629 2°49.692 287.7 13.3 286.1 14.2
2002-12-12 08:09:14 51°15.636 2°49.652 288 13.2 286.2 13.9
2002-12-12 08:09:19 51°15.641 2°49.624 288.2 13.2 286 13.8
2002-12-12 08:09:23 51°15.645 2°49.602 287.8 13.2 286.2 13.6
2002-12-12 08:09:29 51°15.651 2°49.568 288.5 13.2 286.2 13.5
2002-12-12 08:09:33 51°15.654 2°49.545 288 13.2 285.2 13.4
2002-12-12 08:09:38 51°15.66 2°49.517 288 13.2 285.7 13.2
2002-12-12 08:09:43 51°15.665 2°49.489 288.2 13.1 285.8 13.2
2002-12-12 08:09:49 51°15.67 2°49.456 288 13 285.4 13
2002-12-12 08:09:53 51°15.674 2°49.433 287.8 13.1 285.2 12.8
2002-12-12 08:09:58 51°15.679 2°49.405 287.7 13.1 285.2 12.5
2002-12-12 08:10:03 51°15.683 2°49.377 287 13.1 284.3 12.5
2002-12-12 08:10:09 51°15.689 2°49.343 287.7 13.1 284.7 12.4
2002-12-12 08:10:13 51°15.692 2°49.32 287.8 13.1 284.5 12.3
2002-12-12 08:10:17 51°15.696 2°49.298 287.8 13.1 284.8 12.1
2002-12-12 08:10:22 51°15.701 2°49.27 288 13.2 285.3 12
2002-12-12 08:10:29 51°15.708 2°49.231 287.2 13.2 285.5 12
2002-12-12 08:10:33 51°15.712 2°49.208 287.8 13.3 285 11.6
2002-12-12 08:10:37 51°15.716 2°49.186 287.5 13.2 285.1 11.7
2002-12-12 08:10:43 51°15.721 2°49.152 287.5 13.2 284.9 11.8
2002-12-12 08:10:49 51°15.727 2°49.117 287.7 13.3 285 11.8
2002-12-12 08:10:54 51°15.732 2°49.089 287.7 13.3 285.2 11.8
2002-12-12 08:10:57 51°15.734 2°49.072 287.5 13.3 284.7 11.7
2002-12-12 08:11:02 51°15.739 2°49.043 287.8 13.4 285.1 11.8
2002-12-12 08:11:09 51°15.747 2°49.003 288.7 13.4 285.4 11.9
2002-12-12 08:11:13 51°15.75 2°48.98 287.7 13.4 284.8 12
2002-12-12 08:11:19 51°15.756 2°48.945 288 13.5 285.2 12.1
2002-12-12 08:11:21 51°15.758 2°48.934 288.3 13.5 285.3 12.1
2002-12-12 08:11:29 51°15.765 2°48.888 287.8 13.4 285.2 12.1
2002-12-12 08:11:33 51°15.769 2°48.864 288.5 13.5 285 12.2
2002-12-12 08:11:37 51°15.774 2°48.841 288.8 13.6 286 12.4
2002-12-12 08:11:43 51°15.779 2°48.806 288.2 13.6 284.8 12.4
2002-12-12 08:11:49 51°15.785 2°48.771 288 13.7 284.8 12.4
2002-12-12 08:11:53 51°15.789 2°48.748 288.2 13.8 284.5 12.6
2002-12-12 08:11:58 51°15.794 2°48.719 288.7 13.8 284.7 12.6
2002-12-12 08:12:02 51°15.798 2°48.696 289.2 13.7 286 12.8
2002-12-12 08:12:09 51°15.805 2°48.655 288 13.6 285.3 12.9
2002-12-12 08:12:14 51°15.81 2°48.626 288.7 13.6 285.5 13.1
2002-12-12 08:12:17 51°15.813 2°48.609 288.2 13.6 285.2 13.1
2002-12-12 08:12:23 51°15.819 2°48.574 287.5 13.6 285 13.1
2002-12-12 08:12:29 51°15.825 2°48.539 288.2 13.6 284.8 13.2
2002-12-12 08:12:33 51°15.829 2°48.516 288 13.6 285.1 13.2
2002-12-12 08:12:38 51°15.833 2°48.486 287.3 13.5 284.5 13.5
2002-12-12 08:12:41 51°15.836 2°48.469 288.2 13.5 285.3 13.7
2002-12-12 08:12:49 51°15.844 2°48.423 287.5 13.5 284.4 13.9
2002-12-12 08:12:53 51°15.848 2°48.401 287.3 13.4 285.2 14.1
2002-12-12 08:12:59 51°15.853 2°48.365 287.5 13.5 284.3 14.4
2002-12-12 08:13:03 51°15.858 2°48.342 287.2 13.6 285.2 14.5
2002-12-12 08:13:09 51°15.863 2°48.308 287.7 13.6 284.3 14.7
2002-12-12 08:13:13 51°15.867 2°48.285 288.5 13.5 285.9 14.8
2002-12-12 08:13:18 51°15.872 2°48.256 287.7 13.5 284.8 14.9
2002-12-12 08:13:23 51°15.878 2°48.227 288.8 13.6 286.4 15.1
2002-12-12 08:13:29 51°15.882 2°48.192 287.8 13.6 284.6 15.1
2002-12-12 08:13:33 51°15.887 2°48.169 288.5 13.6 285.7 15.2
2002-12-12 08:13:38 51°15.891 2°48.14 287.7 13.5 284.8 15.6
2002-12-12 08:13:43 51°15.897 2°48.111 288.2 13.5 284.8 15.5
2002-12-12 08:13:49 51°15.902 2°48.076 287.3 13.6 284.8 15.8
2002-12-12 08:13:53 51°15.907 2°48.053 288.2 13.5 286.1 16
2002-12-12 08:13:59 51°15.912 2°48.018 288.3 13.5 284.3 15.8
2002-12-12 08:14:03 51°15.917 2°47.996 288.5 13.5 286.6 16.2
2002-12-12 08:14:08 51°15.921 2°47.967 288 13.4 284.9 16.4
2002-12-12 08:14:13 51°15.926 2°47.938 288 13.4 285.3 16.3
2002-12-12 08:14:18 51°15.932 2°47.91 288.5 13.4 285.8 16.6
2002-12-12 08:14:22 51°15.935 2°47.887 287.7 13.4 285.4 16.5
2002-12-12 08:14:29 51°15.942 2°47.847 287.2 13.4 285.3 16.4
2002-12-12 08:14:33 51°15.945 2°47.824 287.5 13.4 285 16.9
2002-12-12 08:14:38 51°15.951 2°47.796 288.2 13.4 285.4 16.8
2002-12-12 08:14:42 51°15.954 2°47.773 287.7 13.4 285.3 16.8
2002-12-12 08:14:49 51°15.962 2°47.733 288 13.5 285.9 16.9
2002-12-12 08:14:53 51°15.965 2°47.71 288.2 13.5 285.3 16.9
2002-12-12 08:14:58 51°15.971 2°47.682 288.3 13.5 285.9 17
2002-12-12 08:15:03 51°15.975 2°47.653 288.3 13.4 284.4 16.8
2002-12-12 08:15:09 51°15.982 2°47.619 288.7 13.4 286.2 17.1
2002-12-12 08:15:13 51°15.985 2°47.596 288.2 13.3 284.9 16.9
2002-12-12 08:15:18 51°15.99 2°47.569 287.3 13.3 286.2 17
2002-12-12 08:15:22 51°15.993 2°47.546 287.7 13.2 284.6 17.2
2002-12-12 08:15:29 51°16.001 2°47.506 288 13.2 285.6 17.3
2002-12-12 08:15:34 51°16.005 2°47.478 288 13.2 284.5 17.4
2002-12-12 08:15:37 51°16.009 2°47.461 287.5 13.2 286.3 17.4
2002-12-12 08:15:42 51°16.012 2°47.432 287.7 13.3 284.5 17.4
2002-12-12 08:15:48 51°16.019 2°47.399 287 13.3 286.4 17.5
2002-12-12 08:15:53 51°16.023 2°47.37 286.8 13.3 283.6 17.6
2002-12-12 08:15:58 51°16.029 2°47.341 287.7 13.3 285.3 17.5
2002-12-12 08:16:02 51°16.031 2°47.318 287.2 13.3 284.3 17.4
2002-12-12 08:16:08 51°16.038 2°47.284 288 13.4 285.7 17.3
2002-12-12 08:16:12 51°16.042 2°47.262 288 13.3 285.7 17.3
2002-12-12 08:16:18 51°16.047 2°47.227 287.5 13.4 284.5 16.8
2002-12-12 08:16:22 51°16.052 2°47.205 288.8 13.4 286.5 17.1
2002-12-12 08:16:28 51°16.057 2°47.17 287.8 13.3 284.9 16.8
2002-12-12 08:16:33 51°16.064 2°47.142 289 13.4 286.8 16.9
2002-12-12 08:16:38 51°16.068 2°47.113 287.2 13.3 285.1 16.5
2002-12-12 08:16:44 51°16.075 2°47.08 289 13.3 286.8 16.4
2002-12-12 08:16:48 51°16.078 2°47.057 287.7 13.3 285.7 16.3
2002-12-12 08:16:53 51°16.084 2°47.03 289 13.4 286.9 16.2
2002-12-12 08:16:58 51°16.089 2°47.001 289.3 13.3 287.3 15.8
2002-12-12 08:17:03 51°16.096 2°46.974 291 13.3 288.6 16.1
2002-12-12 08:17:08 51°16.102 2°46.946 290.7 13.3 289.2 16
2002-12-12 08:17:13 51°16.107 2°46.919 290.8 13.3 288.6 15.8
2002-12-12 08:17:19 51°16.115 2°46.886 291.8 13.4 290.4 14.4
2002-12-12 08:17:23 51°16.121 2°46.864 293.3 13.4 290.9 14.9
2002-12-12 08:17:29 51°16.13 2°46.831 294.2 13.4 292.9 13.8
2002-12-12 08:17:33 51°16.135 2°46.809 294.5 13.4 292.7 13.9
2002-12-12 08:17:39 51°16.146 2°46.778 295.8 13.4 294.9 14
2002-12-12 08:17:43 51°16.15 2°46.755 294.8 13.3 293 14.2
2002-12-12 08:17:49 51°16.16 2°46.724 295.2 13.3 294.7 13.8
2002-12-12 08:17:52 51°16.163 2°46.707 294.3 13.3 292.8 13.8
2002-12-12 08:17:59 51°16.174 2°46.668 295 13.4 293 13.7
2002-12-12 08:18:03 51°16.179 2°46.646 294.5 13.5 292.7 13.5
2002-12-12 08:18:09 51°16.188 2°46.614 295 13.4 292.3 13.3
2002-12-12 08:18:14 51°16.196 2°46.588 297 13.3 294.1 12.9
2002-12-12 08:18:18 51°16.203 2°46.566 298.5 13.4 295.6 12.4
2002-12-12 08:18:23 51°16.211 2°46.54 299.7 13.5 296.7 12.3
2002-12-12 08:18:29 51°16.222 2°46.509 300.3 13.4 297.8 11.9
2002-12-12 08:18:34 51°16.23 2°46.483 300.3 13.4 298 11.7
2002-12-12 08:18:37 51°16.236 2°46.467 300.7 13.4 298.5 11.5
2002-12-12 08:18:42 51°16.245 2°46.441 300.2 13.3 298.4 11.5
2002-12-12 08:18:49 51°16.256 2°46.404 300.3 13.3 297.8 11.4
2002-12-12 08:18:53 51°16.264 2°46.383 300 13.4 298.2 11.2
2002-12-12 08:18:59 51°16.275 2°46.352 300.8 13.4 298.5 11.1
2002-12-12 08:19:03 51°16.282 2°46.331 301.8 13.4 299.1 11.1
2002-12-12 08:19:09 51°16.294 2°46.301 303.3 13.4 300.6 11
2002-12-12 08:19:14 51°16.304 2°46.276 305.5 13.4 302 11
2002-12-12 08:19:18 51°16.313 2°46.257 308.2 13.4 304.7 10.9
2002-12-12 08:19:23 51°16.325 2°46.233 311 13.6 307.5 10.6
2002-12-12 08:19:29 51°16.34 2°46.207 313.8 13.6 310.4 10.7
2002-12-12 08:19:34 51°16.353 2°46.185 315.5 13.7 312.5 10.7
2002-12-12 08:19:38 51°16.364 2°46.167 316.2 13.7 313.5 10.6
2002-12-12 08:19:43 51°16.377 2°46.146 317.8 13.7 314.4 10.6
2002-12-12 08:19:47 51°16.388 2°46.129 318.3 13.7 315.2 10.7
2002-12-12 08:19:54 51°16.407 2°46.099 318.5 13.8 315.8 10.7
2002-12-12 08:19:58 51°16.418 2°46.082 319.2 13.9 316 10.9
2002-12-12 08:20:03 51°16.432 2°46.06 318.7 13.9 315.8 10.8
2002-12-12 08:20:09 51°16.449 2°46.035 319 13.9 315.8 11
2002-12-12 08:20:14 51°16.462 2°46.013 318.8 14 315.3 11
2002-12-12 08:20:18 51°16.473 2°45.996 319.7 14 315.6 11.1
2002-12-12 08:20:23 51°16.487 2°45.974 319 14 315.6 11.3
2002-12-12 08:20:29 51°16.504 2°45.948 318.5 14 315.6 11.4
2002-12-12 08:20:33 51°16.514 2°45.93 318.3 14 314.9 11.4
2002-12-12 08:20:38 51°16.529 2°45.908 318.2 14 315.4 11.4
2002-12-12 08:20:42 51°16.539 2°45.891 317.8 14.1 314.9 11.5
2002-12-12 08:20:49 51°16.559 2°45.86 318.7 14.1 315.4 11.6
2002-12-12 08:20:53 51°16.57 2°45.843 318.7 14.1 315.3 11.8
2002-12-12 08:20:59 51°16.587 2°45.816 317.8 14.1 315.1 11.7
2002-12-12 08:21:03 51°16.598 2°45.798 317.8 14 314.9 11.7
2002-12-12 08:21:09 51°16.614 2°45.772 317.5 14 314.4 11.6
2002-12-12 08:21:14 51°16.628 2°45.749 317.3 14 314.5 11.7
2002-12-12 08:21:19 51°16.641 2°45.727 317.3 14 314.3 11.1
2002-12-12 08:21:23 51°16.652 2°45.71 318.3 14 314.8 12
2002-12-12 08:21:26 51°16.661 2°45.697 318.2 14.1 315.2 12.3
2002-12-12 08:21:33 51°16.68 2°45.666 318 14.1 315.3 12.6
2002-12-12 08:21:39 51°16.697 2°45.639 317.7 14.1 315 12.6
2002-12-12 08:21:43 51°16.708 2°45.622 317.8 14.1 315.3 12.8
2002-12-12 08:21:49 51°16.725 2°45.595 318.3 14.2 314.9 13.1
2002-12-12 08:21:54 51°16.738 2°45.572 317.7 14.2 314.7 13.3
2002-12-12 08:21:59 51°16.752 2°45.55 317.7 14.2 314.4 13.1
2002-12-12 08:22:03 51°16.763 2°45.532 317.5 14.1 314.2 13
2002-12-12 08:22:09 51°16.779 2°45.506 317.8 14.1 314.3 13.3
2002-12-12 08:22:14 51°16.793 2°45.484 318 14.1 314.5 13.6
2002-12-12 08:22:18 51°16.804 2°45.466 317.7 14.1 314.4 13.4
2002-12-12 08:22:23 51°16.818 2°45.444 317.8 14.1 314.6 13.8
2002-12-12 08:22:29 51°16.834 2°45.417 317.3 14.1 314.1 13.9
2002-12-12 08:22:33 51°16.845 2°45.399 317.5 14.1 314.3 14
2002-12-12 08:22:38 51°16.858 2°45.377 317.7 14.1 314.2 13.8
2002-12-12 08:22:44 51°16.875 2°45.35 318 14 314.2 13.7
2002-12-12 08:22:49 51°16.888 2°45.328 318.5 14 314.7 13.9
2002-12-12 08:22:53 51°16.899 2°45.311 319.3 14 315.4 13.8
2002-12-12 08:22:59 51°16.916 2°45.285 319 14 316.2 13.7
2002-12-12 08:23:03 51°16.927 2°45.268 319.3 14 316 14.2
2002-12-12 08:23:09 51°16.944 2°45.242 319.3 14.1 316.1 13.7
2002-12-12 08:23:13 51°16.956 2°45.225 319.2 14.1 315.9 14.2
2002-12-12 08:23:19 51°16.972 2°45.198 319.2 14.1 316 14.4
2002-12-12 08:23:23 51°16.983 2°45.181 319.3 14.1 315.9 14.2
2002-12-12 08:23:29 51°17 2°45.155 319 14 315.6 14.5
2002-12-12 08:23:34 51°17.014 2°45.133 318.7 14 315.5 14.5
2002-12-12 08:23:38 51°17.025 2°45.116 319.2 14 316.1 14.5
2002-12-12 08:23:42 51°17.036 2°45.099 318.8 14.1 316.1 14.8
2002-12-12 08:23:49 51°17.056 2°45.069 318.7 14.1 316.3 14.9
2002-12-12 08:23:54 51°17.07 2°45.047 318.8 14.1 315.8 15
2002-12-12 08:23:59 51°17.084 2°45.026 319.7 14.1 316.6 14.7
2002-12-12 08:24:03 51°17.095 2°45.009 319 14.1 316.5 15.4
2002-12-12 08:24:09 51°17.112 2°44.982 319.5 14.1 316.2 15.5
2002-12-12 08:24:13 51°17.124 2°44.966 319.2 14.1 316.3 15.3
2002-12-12 08:24:17 51°17.135 2°44.949 319.3 14.1 316.5 15.4
2002-12-12 08:24:23 51°17.152 2°44.923 319.7 14 316.8 16.1
2002-12-12 08:24:29 51°17.169 2°44.898 319.8 14 316.8 16.4
2002-12-12 08:24:33 51°17.181 2°44.881 319.5 14.1 317.1 16.6
2002-12-12 08:24:39 51°17.197 2°44.855 319.2 14.1 316.4 16.1
2002-12-12 08:24:43 51°17.209 2°44.838 319 14.1 316.8 16.3
2002-12-12 08:24:48 51°17.223 2°44.817 318.8 14.1 316.7 16.9
2002-12-12 08:24:54 51°17.24 2°44.791 319 14.1 316.6 17
2002-12-12 08:24:58 51°17.251 2°44.774 319.2 14.2 316.6 17.1
2002-12-12 08:25:03 51°17.265 2°44.751 319.2 14.2 316.2 16.9
2002-12-12 08:25:09 51°17.283 2°44.726 319 14.2 316.7 17.2
2002-12-12 08:25:13 51°17.294 2°44.709 319 14.1 316.4 17.3
2002-12-12 08:25:19 51°17.311 2°44.683 319.2 14.1 316.6 17.2
2002-12-12 08:25:24 51°17.325 2°44.662 319 14.1 316.6 17.4
2002-12-12 08:25:29 51°17.339 2°44.641 319.3 14.1 316.7 17.1
2002-12-12 08:25:34 51°17.354 2°44.619 319.3 14.1 316.9 17.2
2002-12-12 08:25:37 51°17.362 2°44.606 318.8 14.1 316.6 16.8
2002-12-12 08:25:43 51°17.379 2°44.581 319 14.1 316.8 17.3
2002-12-12 08:25:49 51°17.396 2°44.555 318.8 14.1 316.8 17.3
2002-12-12 08:25:53 51°17.407 2°44.539 320.3 13.7 317.1 17.3
2002-12-12 08:25:59 51°17.423 2°44.517 321.8 13.2 318.4 17.4
2002-12-12 08:26:04 51°17.436 2°44.501 323.5 12.4 320.6 17.3
2002-12-12 08:26:09 51°17.448 2°44.486 324 11.4 322 17.5
2002-12-12 08:26:14 51°17.46 2°44.472 324 10.8 322.4 17.6
2002-12-12 08:26:18 51°17.469 2°44.461 323.7 10.2 322.1 18
2002-12-12 08:26:24 51°17.481 2°44.446 322.3 9.6 321.6 18.1
2002-12-12 08:26:29 51°17.49 2°44.433 319.7 8.9 319.7 17.9
2002-12-12 08:26:34 51°17.497 2°44.42 316 8.4 317.5 18.2
2002-12-12 08:26:38 51°17.503 2°44.411 311.5 7.9 314.8 18.1
2002-12-12 08:26:43 51°17.509 2°44.399 307.8 7.3 310.7 17.7
2002-12-12 08:26:49 51°17.515 2°44.384 304.3 7 308.1 18.2
2002-12-12 08:26:54 51°17.52 2°44.373 300.5 6.6 304.6 18.2
2002-12-12 08:26:58 51°17.523 2°44.363 297 6.2 301.5 18.2
2002-12-12 08:27:03 51°17.527 2°44.352 295.2 5.9 299.7 18.1
2002-12-12 08:27:09 51°17.532 2°44.339 295.2 5.6 298.9 18.4
2002-12-12 08:27:13 51°17.534 2°44.331 295.3 5.3 298.5 18.3
2002-12-12 08:27:19 51°17.537 2°44.321 294.2 4.8 297.5 18
2002-12-12 08:27:23 51°17.539 2°44.315 291.3 4.3 297.8 18
2002-12-12 08:27:29 51°17.541 2°44.307 286.2 3.6 295.1 18.3
2002-12-12 08:27:34 51°17.542 2°44.302 280.2 3 292.7 18.4
2002-12-12 08:27:38 51°17.543 2°44.299 274 2.4 289.2 18.2
2002-12-12 08:27:43 51°17.544 2°44.296 268.5 1.9 289 18.5
2002-12-12 08:27:49 51°17.544 2°44.293 263.2 1.4 290.1 18.3
2002-12-12 08:27:53 51°17.545 2°44.292 258.8 1 296.6 18.5
2002-12-12 08:27:59 51°17.545 2°44.291 255 0.7 309 18.2
2002-12-12 08:28:03 51°17.546 2°44.29 252.2 0.6 318.3 18.5
2002-12-12 08:28:09 51°17.547 2°44.289 249.3 0.6 321.9 18.5
2002-12-12 08:28:13 51°17.548 2°44.288 247 0.6 321.3 18.2
2002-12-12 08:28:19 51°17.548 2°44.288 244.7 0.6 320.7 18.5
2002-12-12 08:28:23 51°17.549 2°44.286 242.8 0.6 315.8 18.2
2002-12-12 08:28:29 51°17.549 2°44.285 239.8 0.5 303.6 18.3
2002-12-12 08:28:34 51°17.549 2°44.284 236.3 0.6 298.1 18.4
2002-12-12 08:28:39 51°17.55 2°44.283 233.3 0.5 293.7 18.4
2002-12-12 08:28:44 51°17.55 2°44.282 230.7 0.5 294.4 18.1
2002-12-12 08:28:48 51°17.55 2°44.282 229 0.5 294 18.4
2002-12-12 08:28:54 51°17.55 2°44.28 227.3 0.5 294.5 18.2
2002-12-12 08:28:58 51°17.551 2°44.28 225.5 0.4 294.1 18.4
2002-12-12 08:29:04 51°17.551 2°44.279 224.7 0.5 291.5 18.3
2002-12-12 08:29:09 51°17.551 2°44.278 223.8 0.4 288.8 18.1
2002-12-12 08:29:14 51°17.551 2°44.277 222.8 0.4 288.1 18.2
2002-12-12 08:29:18 51°17.551 2°44.277 222.3 0.4 277.5 18.3
2002-12-12 08:29:23 51°17.551 2°44.275 222.3 0.4 276.8 18.2
2002-12-12 08:29:29 51°17.551 2°44.274 222.2 0.4 279.9 18.1
2002-12-12 08:29:33 51°17.551 2°44.274 221.3 0.4 278.3 18.1
2002-12-12 08:29:39 51°17.551 2°44.273 221.3 0.4 275 17.8
2002-12-12 08:29:41 51°17.551 2°44.272 221.2 0.4 270 18.4
2002-12-12 08:29:49 51°17.551 2°44.271 220.3 0.4 269.8 18.4
2002-12-12 08:29:54 51°17.551 2°44.27 219.7 0.4 268.4 18.4
2002-12-12 08:29:59 51°17.551 2°44.269 218.7 0.4 267.9 17.9
2002-12-12 08:30:04 51°17.55 2°44.268 217.3 0.4 268.4 18.2
2002-12-12 08:30:09 51°17.55 2°44.267 216.3 0.4 259.9 18.2
2002-12-12 08:30:13 51°17.55 2°44.267 215.3 0.4 256.4 18.3
2002-12-12 08:30:19 51°17.55 2°44.265 215 0.4 256.6 18.3
2002-12-12 08:30:23 51°17.55 2°44.265 214.2 0.4 257 18.2
2002-12-12 08:30:29 51°17.55 2°44.264 213.5 0.4 259.7 18.3
2002-12-12 08:30:34 51°17.55 2°44.263 213.2 0.4 247.5 18.2
2002-12-12 08:30:39 51°17.55 2°44.262 212.8 0.4 253.1 17.7
2002-12-12 08:30:44 51°17.55 2°44.261 212.7 0.4 250.7 18.2
2002-12-12 08:30:49 51°17.549 2°44.26 212 0.4 236 18.3
2002-12-12 08:30:54 51°17.549 2°44.259 211.3 0.4 245.8 18.3
2002-12-12 08:30:57 51°17.549 2°44.259 210.8 0.4 236.8 18.2
2002-12-12 08:31:04 51°17.548 2°44.258 210.2 0.5 235 18.2
2002-12-12 08:31:09 51°17.548 2°44.257 209.8 0.5 231.1 18.1
2002-12-12 08:31:14 51°17.547 2°44.256 209.5 0.5 232 18.1
2002-12-12 08:31:18 51°17.547 2°44.256 208.7 0.4 229.9 18.1
2002-12-12 08:31:23 51°17.547 2°44.255 207.3 0.4 232 18
2002-12-12 08:31:29 51°17.546 2°44.254 205.8 0.4 226.4 18
2002-12-12 08:31:33 51°17.546 2°44.254 204.2 0.4 223.8 17.8
2002-12-12 08:31:39 51°17.545 2°44.253 203 0.4 217.5 18.2
2002-12-12 08:31:43 51°17.544 2°44.253 201 0.4 210.3 18.1
2002-12-12 08:31:49 51°17.544 2°44.252 199.8 0.5 215.5 18.1
2002-12-12 08:31:54 51°17.544 2°44.252 199 0.4 212.8 17.9
2002-12-12 08:31:59 51°17.543 2°44.251 197.2 0.4 216.6 18.1
2002-12-12 08:32:03 51°17.543 2°44.251 196 0.3 210.4 18.2
2002-12-12 08:32:09 51°17.543 2°44.25 194.5 0.4 209.1 18.4
2002-12-12 08:32:14 51°17.543 2°44.249 194 0.4 216.7 18.3
2002-12-12 08:32:18 51°17.542 2°44.249 192.7 0.3 212.7 18.3
2002-12-12 08:32:23 51°17.542 2°44.249 191.8 0.3 216 18.1
2002-12-12 08:32:29 51°17.541 2°44.249 190.8 0.3 192.2 18.2
2002-12-12 08:32:33 51°17.541 2°44.249 189.7 0.3 197.5 18
2002-12-12 08:32:39 51°17.54 2°44.249 188.8 0.3 194.1 18.1
2002-12-12 08:32:41 51°17.54 2°44.249 187.7 0.3 193.6 17.8
2002-12-12 08:32:49 51°17.539 2°44.249 186.3 0.3 190.9 18.1
2002-12-12 08:32:54 51°17.539 2°44.248 186 0.3 198.9 18.2
2002-12-12 08:32:58 51°17.539 2°44.249 184.8 0.3 186.5 18
2002-12-12 08:33:04 51°17.538 2°44.248 183.5 0.3 188.6 18.1
2002-12-12 08:33:09 51°17.538 2°44.249 182 0.3 166.3 18.1
2002-12-12 08:33:13 51°17.538 2°44.248 180.8 0.3 170 18
2002-12-12 08:33:19 51°17.537 2°44.249 179.7 0.3 159.7 17.9
2002-12-12 08:33:24 51°17.537 2°44.249 178.2 0.3 164 18.1
2002-12-12 08:33:29 51°17.536 2°44.249 177.2 0.3 160.2 17.9
2002-12-12 08:33:34 51°17.536 2°44.25 176 0.3 163.8 18
2002-12-12 08:33:39 51°17.535 2°44.25 175 0.3 163.5 18.1
2002-12-12 08:33:43 51°17.535 2°44.25 174.2 0.2 164.3 17.9
2002-12-12 08:33:49 51°17.535 2°44.251 173.2 0.3 160 18.1
2002-12-12 08:33:54 51°17.534 2°44.251 172.3 0.3 160.8 18.2
2002-12-12 08:33:57 51°17.534 2°44.251 172 0.3 156.6 18.2
2002-12-12 08:34:04 51°17.533 2°44.251 171 0.3 146.2 18.2
2002-12-12 08:34:09 51°17.533 2°44.252 170 0.3 148.4 18.2
2002-12-12 08:34:14 51°17.533 2°44.252 169.2 0.3 145.5 18.2
2002-12-12 08:34:17 51°17.532 2°44.253 168.2 0.3 139.7 18.1
2002-12-12 08:34:23 51°17.532 2°44.253 166.7 0.3 133.9 18.1
2002-12-12 08:34:29 51°17.532 2°44.254 165.8 0.3 134.8 18.1
2002-12-12 08:34:34 51°17.532 2°44.254 165.3 0.2 126.3 18.1
2002-12-12 08:34:38 51°17.532 2°44.254 164.5 0.2 127.8 18
2002-12-12 08:34:43 51°17.531 2°44.255 163.3 0.3 120.5 18.1
2002-12-12 08:34:49 51°17.531 2°44.256 161.7 0.3 120.7 18
2002-12-12 08:34:54 51°17.531 2°44.257 160.7 0.4 116.3 17.8
2002-12-12 08:34:59 51°17.531 2°44.258 159.8 0.3 120.8 18
2002-12-12 08:35:03 51°17.531 2°44.258 159.2 0.3 116.1 18.1
2002-12-12 08:35:09 51°17.531 2°44.258 158.2 0.3 111.2 18.1
2002-12-12 08:35:13 51°17.53 2°44.259 157 0.3 112.5 17.9
2002-12-12 08:35:19 51°17.53 2°44.26 155.7 0.4 101.4 17.9
2002-12-12 08:35:24 51°17.53 2°44.261 155.3 0.3 107.5 18.2
2002-12-12 08:35:29 51°17.53 2°44.261 155.5 0.3 100.6 18.1
2002-12-12 08:35:33 51°17.53 2°44.262 154.3 0.3 110.8 18
2002-12-12 08:35:38 51°17.53 2°44.263 154.5 0.3 112.7 18.1
2002-12-12 08:35:43 51°17.53 2°44.264 153.8 0.3 105 18
2002-12-12 08:35:49 51°17.53 2°44.265 153.3 0.3 105.8 17.9
2002-12-12 08:35:54 51°17.529 2°44.265 154.2 0.3 103.1 18.1
2002-12-12 08:35:59 51°17.529 2°44.266 154 0.4 102.3 18.2
2002-12-12 08:36:03 51°17.529 2°44.267 153.5 0.4 104.4 18.2
2002-12-12 08:36:09 51°17.529 2°44.268 153.5 0.4 102.5 18.2
2002-12-12 08:36:13 51°17.529 2°44.268 153.7 0.4 98.4 18.2
2002-12-12 08:36:19 51°17.529 2°44.27 153.8 0.4 92.1 18
2002-12-12 08:36:23 51°17.529 2°44.271 153.3 0.5 96.5 18.2
2002-12-12 08:36:29 51°17.529 2°44.272 153.3 0.4 102.6 17.7
2002-12-12 08:36:34 51°17.529 2°44.273 153.3 0.4 103.6 18
2002-12-12 08:36:39 51°17.529 2°44.274 153.3 0.4 106.4 18.1
2002-12-12 08:36:43 51°17.528 2°44.274 153.7 0.4 103.6 18.1
2002-12-12 08:36:49 51°17.528 2°44.275 153.3 0.4 105.8 18
2002-12-12 08:36:53 51°17.528 2°44.276 153.3 0.4 109.1 18.1
2002-12-12 08:36:59 51°17.528 2°44.277 153.7 0.4 113.8 17.8
2002-12-12 08:37:03 51°17.527 2°44.278 154 0.4 116 17.9
2002-12-12 08:37:09 51°17.527 2°44.279 154.7 0.4 116 18
2002-12-12 08:37:13 51°17.527 2°44.279 155.5 0.4 117.7 18.1
2002-12-12 08:37:19 51°17.527 2°44.28 156.2 0.4 116.4 18
2002-12-12 08:37:23 51°17.526 2°44.281 156.5 0.4 114.9 17.8
2002-12-12 08:37:29 51°17.526 2°44.282 157 0.4 115.1 17.9
2002-12-12 08:37:34 51°17.526 2°44.283 157.8 0.4 117.1 17.5
2002-12-12 08:37:38 51°17.525 2°44.283 159 0.4 123.1 17.9
2002-12-12 08:37:43 51°17.525 2°44.284 159.7 0.4 119.2 17.7
2002-12-12 08:37:49 51°17.524 2°44.285 159.7 0.4 125.1 17.9
2002-12-12 08:37:53 51°17.524 2°44.286 160.3 0.4 127.7 17.9
2002-12-12 08:37:59 51°17.524 2°44.287 161.7 0.4 122.3 17.9
2002-12-12 08:38:03 51°17.524 2°44.287 162.5 0.4 125.6 17.5
2002-12-12 08:38:09 51°17.523 2°44.288 163.5 0.4 132.6 17.9
2002-12-12 08:38:14 51°17.523 2°44.289 163.8 0.5 130 17.8
2002-12-12 08:38:18 51°17.522 2°44.29 163.7 0.5 128.7 17.8
2002-12-12 08:38:23 51°17.522 2°44.291 164.2 0.5 131.3 17.9
2002-12-12 08:38:29 51°17.521 2°44.291 165.5 0.4 139.9 17.9
2002-12-12 08:38:34 51°17.521 2°44.292 165.8 0.4 128 18
2002-12-12 08:38:38 51°17.52 2°44.292 166.2 0.4 140.4 17.7
2002-12-12 08:38:44 51°17.52 2°44.293 168 0.4 134.8 18.1
2002-12-12 08:38:49 51°17.519 2°44.294 168.3 0.4 136 18.2
2002-12-12 08:38:53 51°17.519 2°44.294 168.5 0.4 144 18
2002-12-12 08:38:59 51°17.519 2°44.295 169.5 0.4 143.5 18.3
2002-12-12 08:39:03 51°17.518 2°44.295 169.8 0.4 144.9 18.2
2002-12-12 08:39:09 51°17.518 2°44.296 170.2 0.4 133.8 17.6
2002-12-12 08:39:14 51°17.517 2°44.297 170.7 0.3 140.7 17.9
2002-12-12 08:39:19 51°17.517 2°44.297 171.5 0.4 141.8 18.2
2002-12-12 08:39:24 51°17.516 2°44.298 171.8 0.4 143.1 18.2
2002-12-12 08:39:29 51°17.516 2°44.298 172.3 0.3 152.2 18.2
2002-12-12 08:39:33 51°17.516 2°44.298 173.2 0.3 151.9 18.2
2002-12-12 08:39:38 51°17.515 2°44.298 173.3 0.3 142.3 17.7
2002-12-12 08:39:44 51°17.515 2°44.299 173.5 0.3 150.2 18.2
2002-12-12 08:39:49 51°17.515 2°44.299 173.7 0.3 145.1 18.3
2002-12-12 08:39:54 51°17.515 2°44.3 173 0.2 140.3 18.2
2002-12-12 08:39:58 51°17.514 2°44.299 172.8 0.2 155.7 18.3
2002-12-12 08:40:04 51°17.514 2°44.3 172.3 0.3 141.5 18.3
2002-12-12 08:40:09 51°17.514 2°44.3 171.8 0.2 144.8 18.3
2002-12-12 08:40:14 51°17.513 2°44.301 171.2 0.3 135.5 18.2
2002-12-12 08:40:18 51°17.513 2°44.301 170.3 0.2 141.6 18.2
2002-12-12 08:40:24 51°17.513 2°44.301 169.5 0.2 131.2 18.2
2002-12-12 08:40:29 51°17.513 2°44.302 168.7 0.2 134.8 18.1
2002-12-12 08:40:34 51°17.513 2°44.302 167.7 0.2 120.2 18
2002-12-12 08:40:39 51°17.512 2°44.303 167 0.2 117.8 18.1
2002-12-12 08:40:44 51°17.512 2°44.303 166.3 0.3 119 18.1
2002-12-12 08:40:49 51°17.512 2°44.304 165.5 0.3 116.4 18.2
2002-12-12 08:40:53 51°17.512 2°44.305 163.8 0.3 108.4 18.1
2002-12-12 08:40:58 51°17.511 2°44.305 163 0.3 114.4 18.2
2002-12-12 08:41:04 51°17.511 2°44.306 162.2 0.3 118 18
2002-12-12 08:41:09 51°17.511 2°44.306 161 0.3 112.8 18.1
2002-12-12 08:41:13 51°17.511 2°44.307 159.7 0.4 108.2 18.2
2002-12-12 08:41:19 51°17.511 2°44.308 158.7 0.3 111.6 18.1
2002-12-12 08:41:24 51°17.511 2°44.308 157.7 0.3 110.7 18.1
2002-12-12 08:41:29 51°17.511 2°44.309 156.3 0.3 106.2 18.1
2002-12-12 08:41:34 51°17.51 2°44.31 154.8 0.3 111.2 17.9
2002-12-12 08:41:37 51°17.51 2°44.31 153.8 0.3 115 18
2002-12-12 08:41:44 51°17.51 2°44.311 152.7 0.4 104 18.1
2002-12-12 08:41:49 51°17.51 2°44.312 151.2 0.4 102.5 18.1
2002-12-12 08:41:54 51°17.51 2°44.313 149.8 0.4 98.3 18.1
2002-12-12 08:41:58 51°17.51 2°44.313 149.3 0.4 102.3 18.1
2002-12-12 08:42:04 51°17.51 2°44.314 148.3 0.4 94.1 18.1
2002-12-12 08:42:09 51°17.51 2°44.315 146.7 0.4 93.8 18.1
2002-12-12 08:42:14 51°17.51 2°44.316 146.2 0.3 92.2 18.1
2002-12-12 08:42:18 51°17.51 2°44.317 145.3 0.4 91.8 17.9
2002-12-12 08:42:23 51°17.51 2°44.318 143.5 0.4 94.9 18
2002-12-12 08:42:29 51°17.51 2°44.319 142.2 0.5 93.7 18
2002-12-12 08:42:33 51°17.51 2°44.319 141.7 0.4 94.6 18
2002-12-12 08:42:38 51°17.51 2°44.32 140.5 0.4 89.4 18.1
2002-12-12 08:42:43 51°17.51 2°44.321 138.8 0.4 87.2 18.1
2002-12-12 08:42:49 51°17.51 2°44.323 137.8 0.4 87.3 18.2
2002-12-12 08:42:53 51°17.51 2°44.324 136.5 0.5 84.5 18.2
2002-12-12 08:42:58 51°17.51 2°44.325 135 0.4 84.4 18.1
2002-12-12 08:43:02 51°17.511 2°44.325 133.8 0.5 77.1 18.1
2002-12-12 08:43:09 51°17.511 2°44.327 132.7 0.5 80.4 17.7
2002-12-12 08:43:13 51°17.511 2°44.328 132.2 0.5 82 17.9
2002-12-12 08:43:19 51°17.511 2°44.329 130.8 0.5 83 18
2002-12-12 08:43:23 51°17.511 2°44.331 129.5 0.6 75.1 18.1
2002-12-12 08:43:29 51°17.512 2°44.332 128.8 0.5 75 17.8
2002-12-12 08:43:33 51°17.512 2°44.333 128.5 0.5 70.8 18.1
2002-12-12 08:43:39 51°17.512 2°44.334 127.7 0.5 65.3 18.1
2002-12-12 08:43:44 51°17.512 2°44.336 127.5 0.5 67.3 18.1
2002-12-12 08:43:49 51°17.513 2°44.336 126.8 0.5 65.9 18.1
2002-12-12 08:43:54 51°17.513 2°44.338 126 0.6 62.8 18.1
2002-12-12 08:43:59 51°17.514 2°44.339 124.8 0.5 60.6 18
2002-12-12 08:44:04 51°17.514 2°44.34 124.3 0.5 55 17.9
2002-12-12 08:44:09 51°17.514 2°44.341 123.5 0.6 54.8 17.8
2002-12-12 08:44:13 51°17.515 2°44.342 122.5 0.6 55.5 17.9
2002-12-12 08:44:19 51°17.515 2°44.343 121.5 0.5 55.2 17.7
2002-12-12 08:44:24 51°17.515 2°44.344 121 0.5 55.2 18.1
2002-12-12 08:44:29 51°17.516 2°44.345 120.3 0.6 50.1 18
2002-12-12 08:44:33 51°17.516 2°44.345 119.8 0.5 50.3 18
2002-12-12 08:44:38 51°17.517 2°44.346 119.7 0.6 44.4 18
2002-12-12 08:44:44 51°17.517 2°44.347 118.5 0.6 46.6 18
2002-12-12 08:44:49 51°17.518 2°44.348 118.7 0.6 42.3 18
2002-12-12 08:44:54 51°17.519 2°44.348 117.7 0.5 34 18
2002-12-12 08:44:59 51°17.519 2°44.349 117.5 0.5 28.2 17.4
2002-12-12 08:45:04 51°17.52 2°44.35 117 0.6 30 17.8
2002-12-12 08:45:09 51°17.52 2°44.35 116 0.6 30.4 17.9
2002-12-12 08:45:13 51°17.521 2°44.351 115.3 0.5 26.5 17.9
2002-12-12 08:45:19 51°17.522 2°44.351 114.7 0.6 25.6 18
2002-12-12 08:45:24 51°17.522 2°44.352 114.3 0.5 25.1 18.1
2002-12-12 08:45:29 51°17.523 2°44.352 113.5 0.5 23.3 18
2002-12-12 08:45:34 51°17.523 2°44.353 112.7 0.6 22.2 18.3
2002-12-12 08:45:38 51°17.524 2°44.353 112.2 0.5 22.3 18.4
2002-12-12 08:45:43 51°17.524 2°44.353 111.7 0.6 23.4 18.1
2002-12-12 08:45:49 51°17.525 2°44.353 111 0.6 19.2 18.2
2002-12-12 08:45:54 51°17.526 2°44.353 109.5 0.6 13.9 18.1
2002-12-12 08:45:57 51°17.527 2°44.354 108.8 0.7 8.5 17.9
2002-12-12 08:46:04 51°17.528 2°44.354 107.5 0.7 6.2 18.1
2002-12-12 08:46:09 51°17.529 2°44.354 106.2 0.7 6.4 18.1
2002-12-12 08:46:14 51°17.53 2°44.355 104.8 0.7 8.9 18.1
2002-12-12 08:46:19 51°17.531 2°44.355 103.5 0.6 10.5 18.2
2002-12-12 08:46:24 51°17.532 2°44.355 102.5 0.7 9.7 18
2002-12-12 08:46:29 51°17.533 2°44.355 101.2 0.7 6.7 17.9
2002-12-12 08:46:33 51°17.534 2°44.355 99.7 0.7 4.6 17.9
2002-12-12 08:46:39 51°17.535 2°44.355 98.5 0.7 3.3 17.7
2002-12-12 08:46:44 51°17.536 2°44.355 97.5 0.7 3 17.7
2002-12-12 08:46:49 51°17.537 2°44.355 95.8 0.7 0.5 17.9
2002-12-12 08:46:53 51°17.538 2°44.355 94.7 0.7 357.2 17.9
2002-12-12 08:46:59 51°17.538 2°44.355 93.5 0.7 355.7 18.1
2002-12-12 08:47:01 51°17.539 2°44.354 92.3 0.7 352.4 17.8
2002-12-12 08:47:09 51°17.541 2°44.354 91 0.7 351 18.3
2002-12-12 08:47:14 51°17.541 2°44.354 89.3 0.7 351 18.2
2002-12-12 08:47:18 51°17.542 2°44.354 88 0.7 350.6 18
2002-12-12 08:47:24 51°17.544 2°44.354 87 0.8 351.6 18.2
2002-12-12 08:47:29 51°17.544 2°44.353 85.3 0.7 350.4 18.2
2002-12-12 08:47:34 51°17.545 2°44.353 84.2 0.8 349.5 18.1
2002-12-12 08:47:38 51°17.546 2°44.353 82.7 0.7 348 18
2002-12-12 08:47:44 51°17.547 2°44.353 81.2 0.7 347.8 18.1
2002-12-12 08:47:49 51°17.548 2°44.352 79.8 0.7 346.8 18.1
2002-12-12 08:47:54 51°17.549 2°44.352 79 0.8 346.1 18
2002-12-12 08:47:59 51°17.55 2°44.352 78 0.7 351.2 18.1
2002-12-12 08:48:04 51°17.551 2°44.351 76.5 0.8 349.9 18.1
2002-12-12 08:48:09 51°17.552 2°44.351 75.5 0.8 346.3 18
2002-12-12 08:48:14 51°17.553 2°44.35 74.7 0.8 346.2 18.1
2002-12-12 08:48:17 51°17.554 2°44.35 73.7 0.7 348.9 18.1
2002-12-12 08:48:24 51°17.555 2°44.35 73 0.7 352.2 18
2002-12-12 08:48:29 51°17.557 2°44.35 72.7 0.8 353.9 18.1
2002-12-12 08:48:34 51°17.558 2°44.349 72 0.8 357.1 18.1
2002-12-12 08:48:39 51°17.559 2°44.35 71 0.8 357.6 17.8
2002-12-12 08:48:44 51°17.56 2°44.35 70.3 0.7 359 17.5
2002-12-12 08:48:46 51°17.56 2°44.35 70 0.7 2.9 17.9
2002-12-12 08:48:53 51°17.562 2°44.35 69.8 0.7 5 18
2002-12-12 08:48:59 51°17.563 2°44.35 69.5 0.8 7.7 17.9
2002-12-12 08:49:04 51°17.564 2°44.351 69.2 0.8 4.6 17.9
2002-12-12 08:49:09 51°17.565 2°44.351 69 0.8 5.6 17.9
2002-12-12 08:49:13 51°17.567 2°44.351 69 0.8 5.6 17.9
2002-12-12 08:49:19 51°17.568 2°44.352 68.8 0.9 10.2 17.8
2002-12-12 08:49:23 51°17.569 2°44.352 68 0.8 17 18
2002-12-12 08:49:29 51°17.57 2°44.352 68 0.9 16 17.9
2002-12-12 08:49:33 51°17.571 2°44.352 68.7 0.9 13.1 18
2002-12-12 08:49:38 51°17.573 2°44.353 68.3 0.9 13.9 17.8
2002-12-12 08:49:43 51°17.574 2°44.354 68 1 12.2 18.1
2002-12-12 08:49:49 51°17.576 2°44.354 67.7 1 9.9 18
2002-12-12 08:49:54 51°17.577 2°44.355 66.7 0.9 11.8 17.2
2002-12-12 08:49:59 51°17.578 2°44.355 65.8 0.9 8.9 18.1
2002-12-12 08:50:04 51°17.579 2°44.355 65 0.9 8 17.8
2002-12-12 08:50:09 51°17.58 2°44.356 63.7 0.9 12 17.7
2002-12-12 08:50:13 51°17.581 2°44.356 63.5 0.9 10.7 18.1
2002-12-12 08:50:18 51°17.583 2°44.356 62.7 0.9 10.1 17.7
2002-12-12 08:50:24 51°17.584 2°44.357 61.5 0.9 9.9 18
2002-12-12 08:50:29 51°17.585 2°44.357 60.3 0.9 8.9 18
2002-12-12 08:50:34 51°17.586 2°44.357 59 0.9 5 17.8
2002-12-12 08:50:39 51°17.588 2°44.358 57.7 0.9 8.5 18
2002-12-12 08:50:44 51°17.589 2°44.358 56.3 0.9 9 17.9
2002-12-12 08:50:49 51°17.59 2°44.358 55.3 0.9 5.8 17.9
2002-12-12 08:50:54 51°17.591 2°44.358 54.5 0.9 3.4 17.6
2002-12-12 08:50:59 51°17.592 2°44.358 53.5 0.8 9.6 17.9
2002-12-12 08:51:04 51°17.594 2°44.359 52.3 0.9 9.4 17.9
2002-12-12 08:51:09 51°17.595 2°44.359 51.3 0.9 5.4 17.9
2002-12-12 08:51:14 51°17.596 2°44.359 49.7 0.8 14.3 18
2002-12-12 08:51:18 51°17.597 2°44.36 49 0.8 10.5 17.8
2002-12-12 08:51:23 51°17.598 2°44.36 48.8 0.8 7 17.8
2002-12-12 08:51:29 51°17.599 2°44.36 48.3 0.8 7.7 17.9
2002-12-12 08:51:33 51°17.601 2°44.36 47.5 0.9 7.3 18.1
2002-12-12 08:51:39 51°17.602 2°44.361 46.5 0.9 7.3 18.2
2002-12-12 08:51:43 51°17.603 2°44.361 45.7 1 2.2 18.2
2002-12-12 08:51:49 51°17.605 2°44.361 44.5 0.9 2.6 18.2
2002-12-12 08:51:54 51°17.606 2°44.361 43.5 0.9 0.8 18.3
2002-12-12 08:51:59 51°17.607 2°44.361 42.5 0.9 0.5 18.2
2002-12-12 08:52:04 51°17.609 2°44.361 41 1 3.3 18.1
2002-12-12 08:52:09 51°17.611 2°44.362 38.8 1.1 9.3 18
2002-12-12 08:52:14 51°17.613 2°44.363 35.7 1.3 13.8 18
2002-12-12 08:52:19 51°17.616 2°44.365 32.2 1.5 15.1 18.2
2002-12-12 08:52:23 51°17.619 2°44.366 27.8 1.8 15.8 17.8
2002-12-12 08:52:29 51°17.622 2°44.368 23.3 2.1 15.4 18.2
2002-12-12 08:52:33 51°17.625 2°44.369 18.7 2.3 14 18.1
2002-12-12 08:52:37 51°17.628 2°44.37 13.7 2.4 11 18
2002-12-12 08:52:43 51°17.632 2°44.371 9.2 2.6 6.8 17.9
2002-12-12 08:52:49 51°17.637 2°44.372 4.2 2.7 5 17.4
2002-12-12 08:52:53 51°17.64 2°44.372 359.3 2.9 0.6 17.3
2002-12-12 08:52:59 51°17.645 2°44.371 354.2 3 358.1 17.2
2002-12-12 08:53:04 51°17.649 2°44.369 348.8 3 353 17
2002-12-12 08:53:09 51°17.653 2°44.367 343.7 3.1 348.8 16.9
2002-12-12 08:53:14 51°17.657 2°44.364 338.7 3.1 344.1 16.9
2002-12-12 08:53:18 51°17.66 2°44.362 332.5 3.1 341.4 16.9
2002-12-12 08:53:23 51°17.664 2°44.359 327.5 3.1 334.8 17
2002-12-12 08:53:29 51°17.668 2°44.355 321.7 3 329.8 17.8
2002-12-12 08:53:34 51°17.671 2°44.35 316.2 3 325.2 18
2002-12-12 08:53:39 51°17.673 2°44.346 311.2 2.9 319.9 18.1
2002-12-12 08:53:43 51°17.675 2°44.342 306.2 2.8 314.5 18.1
2002-12-12 08:53:49 51°17.678 2°44.337 301 2.7 310.4 18.3
2002-12-12 08:53:53 51°17.68 2°44.333 296 2.7 307.8 18.2
2002-12-12 08:53:59 51°17.682 2°44.328 291.7 2.6 304.5 18.2
2002-12-12 08:54:03 51°17.684 2°44.324 289.7 2.5 302.6 18.4
2002-12-12 08:54:09 51°17.686 2°44.319 288.5 2.4 299.6 18.3
2002-12-12 08:54:14 51°17.688 2°44.314 288.2 2.4 301.2 18.4
2002-12-12 08:54:19 51°17.69 2°44.31 288.8 2.4 300.4 18.1
2002-12-12 08:54:24 51°17.692 2°44.304 291 2.7 300.2 18.2
2002-12-12 08:54:29 51°17.694 2°44.298 295 3 301.2 18.3
2002-12-12 08:54:33 51°17.696 2°44.292 301.3 3.3 303.9 18.2
2002-12-12 08:54:39 51°17.7 2°44.286 308.2 3.5 308.7 18.3
2002-12-12 08:54:44 51°17.704 2°44.281 312.8 3.4 314.6 18.4
2002-12-12 08:54:49 51°17.707 2°44.277 316.8 3.2 318.7 18.6
2002-12-12 08:54:54 51°17.71 2°44.274 319.5 2.9 323.3 18.6
2002-12-12 08:54:59 51°17.713 2°44.272 322.7 2.5 326.6 18.5
2002-12-12 08:55:04 51°17.715 2°44.27 327.3 2.1 333.1 18.4
2002-12-12 08:55:09 51°17.717 2°44.269 332 1.7 336.8 18.5
2002-12-12 08:55:13 51°17.718 2°44.268 336.2 1.2 341.3 18.5
2002-12-12 08:55:19 51°17.719 2°44.268 339.7 1 345.7 18.4
2002-12-12 08:55:24 51°17.72 2°44.268 342.2 0.9 350.8 18.5
2002-12-12 08:55:29 51°17.722 2°44.267 344.7 0.9 349.8 18.5
2002-12-12 08:55:34 51°17.723 2°44.267 347.3 0.9 352.2 18.5
2002-12-12 08:55:39 51°17.724 2°44.266 349.5 1 347.8 18.5
2002-12-12 08:55:44 51°17.726 2°44.266 351.7 1 347.2 18.4
2002-12-12 08:55:49 51°17.727 2°44.266 353.7 1.1 348.8 18.6
2002-12-12 08:55:54 51°17.729 2°44.266 355.8 1.1 353 18.3
2002-12-12 08:55:59 51°17.73 2°44.266 358 1.1 354.8 18.6
2002-12-12 08:56:03 51°17.732 2°44.265 0.7 1.1 353 18.6
2002-12-12 08:56:09 51°17.734 2°44.265 2.7 1.2 354.2 18.5
2002-12-12 08:56:14 51°17.736 2°44.265 4.3 1.2 355.2 18.5
2002-12-12 08:56:19 51°17.738 2°44.265 6.3 1.2 355.3 18.5
2002-12-12 08:56:24 51°17.739 2°44.265 8.5 1.2 358.4 18.6